createdAt,value
2018-06-04T00:01:01.506Z,996.32
2018-06-04T00:02:11.583Z,996.34
2018-06-04T00:03:21.411Z,996.26
2018-06-04T00:04:31.497Z,996.28
2018-06-04T00:05:41.618Z,996.27
2018-06-04T00:06:51.690Z,996.29
2018-06-04T00:08:01.765Z,996.26
2018-06-04T00:09:11.871Z,996.26
2018-06-04T00:10:21.680Z,996.26
2018-06-04T00:11:31.500Z,996.22
2018-06-04T00:12:41.571Z,996.24
2018-06-04T00:13:51.649Z,996.26
2018-06-04T00:15:01.734Z,996.25
2018-06-04T00:16:11.559Z,996.21
2018-06-04T00:17:21.160Z,996.21
2018-06-04T00:18:31.240Z,996.2
2018-06-04T00:19:41.054Z,996.2
2018-06-04T00:20:51.139Z,996.2
2018-06-04T00:22:00.960Z,996.19
2018-06-04T00:23:11.044Z,996.15
2018-06-04T00:24:20.888Z,996.14
2018-06-04T00:25:30.960Z,996.13
2018-06-04T00:26:41.046Z,996.11
2018-06-04T00:27:51.126Z,996.1
2018-06-04T00:29:01.227Z,996.07
2018-06-04T00:30:11.322Z,996.06
2018-06-04T00:31:21.414Z,996.04
2018-06-04T00:32:31.486Z,996.04
2018-06-04T00:33:41.324Z,996.05
2018-06-04T00:34:51.414Z,996.05
2018-06-04T00:36:01.487Z,996.01
2018-06-04T00:37:11.324Z,996.08
2018-06-04T00:38:21.401Z,996.05
2018-06-04T00:39:31.492Z,996.05
2018-06-04T00:40:41.583Z,996.07
2018-06-04T00:41:51.411Z,996.09
2018-06-04T00:43:01.216Z,996.05
2018-06-04T00:44:11.021Z,996.04
2018-06-04T00:45:20.828Z,996.01
2018-06-04T00:46:30.952Z,996.05
2018-06-04T00:47:41.032Z,996.01
2018-06-04T00:48:51.104Z,996.03
2018-06-04T00:50:01.201Z,996.01
2018-06-04T00:51:11.302Z,996.01
2018-06-04T00:52:21.380Z,996.01
2018-06-04T00:53:31.447Z,996
2018-06-04T00:54:41.270Z,995.97
2018-06-04T00:55:51.347Z,995.98
2018-06-04T00:57:01.424Z,995.96
2018-06-04T00:58:11.255Z,995.94
2018-06-04T00:59:21.072Z,995.98
2018-06-04T01:00:31.161Z,995.94
2018-06-04T01:01:41.252Z,995.95
2018-06-04T01:02:51.339Z,995.96
2018-06-04T01:04:01.401Z,995.93
2018-06-04T01:05:10.964Z,995.91
2018-06-04T01:06:21.045Z,995.92
2018-06-04T01:07:31.119Z,995.92
2018-06-04T01:08:41.186Z,995.91
2018-06-04T01:09:51.260Z,995.9
2018-06-04T01:11:01.075Z,995.92
2018-06-04T01:12:11.129Z,995.9
2018-06-04T01:13:21.218Z,995.88
2018-06-04T01:14:31.316Z,995.89
2018-06-04T01:15:41.402Z,995.88
2018-06-04T01:16:51.484Z,995.85
2018-06-04T01:18:01.566Z,995.85
2018-06-04T01:19:11.128Z,995.82
2018-06-04T01:20:21.217Z,995.83
2018-06-04T01:21:31.040Z,995.81
2018-06-04T01:22:41.129Z,995.82
2018-06-04T01:23:50.957Z,995.83
2018-06-04T01:25:01.044Z,995.81
2018-06-04T01:26:11.130Z,995.81
2018-06-04T01:27:21.202Z,995.79
2018-06-04T01:28:31.295Z,995.79
2018-06-04T01:29:41.385Z,995.76
2018-06-04T01:30:51.476Z,995.79
2018-06-04T01:32:01.558Z,995.79
2018-06-04T01:33:11.691Z,995.76
2018-06-04T01:34:21.766Z,995.77
2018-06-04T01:35:31.578Z,995.76
2018-06-04T01:36:41.647Z,995.75
2018-06-04T01:37:51.736Z,995.72
2018-06-04T01:39:01.806Z,995.7
2018-06-04T01:40:12.121Z,995.69
2018-06-04T01:41:22.193Z,995.7
2018-06-04T01:42:32.001Z,995.63
2018-06-04T01:43:42.082Z,995.62
2018-06-04T01:44:52.160Z,995.62
2018-06-04T01:46:02.250Z,995.63
2018-06-04T01:47:12.381Z,995.62
2018-06-04T01:48:22.465Z,995.62
2018-06-04T01:49:32.555Z,995.6
2018-06-04T01:50:42.673Z,995.58
2018-06-04T01:51:52.751Z,995.56
2018-06-04T01:53:02.582Z,995.58
2018-06-04T01:54:12.133Z,995.54
2018-06-04T01:55:22.232Z,995.51
2018-06-04T01:56:32.287Z,995.5
2018-06-04T01:57:42.106Z,995.47
2018-06-04T01:58:52.178Z,995.44
2018-06-04T02:00:02.258Z,995.46
2018-06-04T02:01:12.336Z,995.44
2018-06-04T02:02:22.469Z,995.42
2018-06-04T02:03:32.552Z,995.46
2018-06-04T02:04:42.374Z,995.44
2018-06-04T02:05:52.470Z,995.43
2018-06-04T02:07:02.551Z,995.44
2018-06-04T02:08:12.631Z,995.41
2018-06-04T02:09:22.693Z,995.41
2018-06-04T02:10:32.792Z,995.39
2018-06-04T02:11:42.876Z,995.34
2018-06-04T02:12:52.950Z,995.41
2018-06-04T02:14:02.755Z,995.35
2018-06-04T02:15:12.822Z,995.39
2018-06-04T02:16:22.635Z,995.33
2018-06-04T02:17:32.712Z,995.29
2018-06-04T02:18:42.784Z,995.28
2018-06-04T02:19:52.590Z,995.26
2018-06-04T02:21:02.654Z,995.23
2018-06-04T02:22:12.733Z,995.24
2018-06-04T02:23:22.285Z,995.23
2018-06-04T02:24:31.863Z,995.18
2018-06-04T02:25:41.949Z,995.23
2018-06-04T02:26:51.762Z,995.17
2018-06-04T02:28:01.597Z,995.16
2018-06-04T02:29:11.691Z,995.15
2018-06-04T02:30:21.778Z,995.12
2018-06-04T02:31:31.595Z,995.12
2018-06-04T02:32:41.680Z,995.09
2018-06-04T02:33:51.769Z,995.09
2018-06-04T02:35:01.600Z,995.1
2018-06-04T02:36:11.685Z,995.08
2018-06-04T02:37:21.512Z,995.08
2018-06-04T02:38:31.607Z,995.07
2018-06-04T02:39:41.715Z,995.12
2018-06-04T02:40:51.537Z,995.07
2018-06-04T02:42:01.645Z,995.11
2018-06-04T02:43:11.714Z,995.12
2018-06-04T02:44:21.802Z,995.12
2018-06-04T02:45:31.901Z,995.09
2018-06-04T02:46:41.988Z,995.1
2018-06-04T02:47:52.073Z,995.11
2018-06-04T02:49:02.238Z,995.07
2018-06-04T02:50:12.380Z,995.08
2018-06-04T02:51:22.666Z,995.06
2018-06-04T02:52:32.752Z,995.05
2018-06-04T02:53:42.846Z,995.06
2018-06-04T02:54:52.672Z,995.03
2018-06-04T02:56:02.517Z,995.06
2018-06-04T02:57:12.100Z,995.07
2018-06-04T02:58:22.233Z,995.08
2018-06-04T02:59:32.646Z,995.06
2018-06-04T03:00:42.772Z,995.04
2018-06-04T03:01:52.864Z,995.07
2018-06-04T03:03:02.961Z,995.08
2018-06-04T03:35:01.811Z,995.25
2018-06-04T03:36:11.887Z,995.23
2018-06-04T03:37:21.976Z,995.22
2018-06-04T03:38:32.041Z,995.23
2018-06-04T03:39:42.108Z,995.2
2018-06-04T03:40:52.180Z,995.22
2018-06-04T03:42:02.264Z,995.25
2018-06-04T03:43:12.365Z,995.23
2018-06-04T03:44:22.445Z,995.24
2018-06-04T03:45:32.524Z,995.23
2018-06-04T03:46:42.608Z,995.22
2018-06-04T03:47:52.684Z,995.19
2018-06-04T03:49:02.777Z,995.21
2018-06-04T03:50:12.867Z,995.22
2018-06-04T03:51:22.955Z,995.21
2018-06-04T03:52:33.036Z,995.17
2018-06-04T03:53:43.120Z,995.2
2018-06-04T03:54:53.194Z,995.2
2018-06-04T03:56:03.266Z,995.21
2018-06-04T03:57:12.567Z,995.21
2018-06-04T03:58:22.717Z,995.2
2018-06-04T03:59:32.563Z,995.22
2018-06-04T04:00:42.631Z,995.26
2018-06-04T04:01:52.724Z,995.24
2018-06-04T04:03:02.872Z,995.26
2018-06-04T04:04:13.009Z,995.23
2018-06-04T04:05:23.091Z,995.26
2018-06-04T04:06:33.168Z,995.25
2018-06-04T04:07:43.243Z,995.26
2018-06-04T04:08:53.333Z,995.28
2018-06-04T04:10:03.454Z,995.29
2018-06-04T04:11:13.551Z,995.28
2018-06-04T04:12:23.637Z,995.32
2018-06-04T04:13:33.439Z,995.33
2018-06-04T04:14:43.261Z,995.3
2018-06-04T04:15:53.410Z,995.33
2018-06-04T04:17:03.502Z,995.31
2018-06-04T04:18:13.570Z,995.47
2018-06-04T04:19:23.678Z,995.69
2018-06-04T04:20:33.792Z,995.72
2018-06-04T04:21:43.889Z,995.71
2018-06-04T04:22:53.974Z,995.76
2018-06-04T04:24:04.073Z,995.83
2018-06-04T04:25:13.886Z,995.82
2018-06-04T04:26:23.703Z,995.81
2018-06-04T04:27:33.593Z,995.82
2018-06-04T04:28:43.869Z,995.78
2018-06-04T04:29:53.677Z,995.75
2018-06-04T04:31:03.749Z,995.7
2018-06-04T04:32:13.837Z,995.72
2018-06-04T04:33:23.671Z,995.68
2018-06-04T04:34:33.753Z,995.67
2018-06-04T04:35:43.826Z,995.67
2018-06-04T04:36:53.895Z,995.68
2018-06-04T04:38:04.018Z,995.67
2018-06-04T04:39:14.096Z,995.7
2018-06-04T04:40:24.198Z,995.68
2018-06-04T04:41:34.280Z,995.7
2018-06-04T04:42:44.371Z,995.74
2018-06-04T04:43:54.465Z,995.72
2018-06-04T04:45:04.544Z,995.73
2018-06-04T04:46:14.625Z,995.72
2018-06-04T04:47:24.702Z,995.73
2018-06-04T04:48:34.530Z,995.78
2018-06-04T04:49:44.610Z,995.79
2018-06-04T04:50:54.763Z,995.81
2018-06-04T04:52:04.850Z,995.83
2018-06-04T04:53:14.965Z,995.85
2018-06-04T04:54:25.054Z,995.87
2018-06-04T04:55:35.148Z,995.84
2018-06-04T04:56:45.238Z,995.81
2018-06-04T04:57:54.825Z,995.84
2018-06-04T04:59:04.675Z,995.84
2018-06-04T05:00:14.491Z,995.84
2018-06-04T05:01:24.060Z,995.81
2018-06-04T05:02:34.153Z,995.78
2018-06-04T05:03:43.952Z,995.76
2018-06-04T05:04:53.787Z,995.74
2018-06-04T05:06:03.876Z,995.72
2018-06-04T05:07:13.719Z,995.72
2018-06-04T05:08:23.873Z,995.73
2018-06-04T05:09:34.021Z,995.72
2018-06-04T05:10:44.093Z,995.71
2018-06-04T05:11:54.178Z,995.66
2018-06-04T05:13:04.300Z,995.67
2018-06-04T05:14:14.447Z,995.64
2018-06-04T05:15:24.284Z,995.64
2018-06-04T05:16:34.351Z,995.66
2018-06-04T05:17:44.425Z,995.68
2018-06-04T05:18:54.321Z,995.72
2018-06-04T05:20:04.606Z,995.93
2018-06-04T05:21:14.713Z,996.24
2018-06-04T05:22:24.797Z,996.19
2018-06-04T05:23:34.892Z,996.14
2018-06-04T05:24:44.968Z,996.13
2018-06-04T05:25:55.033Z,996.02
2018-06-04T05:27:05.127Z,995.96
2018-06-04T05:28:14.451Z,996.08
2018-06-04T05:29:24.279Z,996.1
2018-06-04T05:30:34.098Z,996.09
2018-06-04T05:31:44.208Z,996.1
2018-06-04T05:32:54.781Z,996.08
2018-06-04T05:34:04.593Z,996.05
2018-06-04T05:35:14.419Z,995.99
2018-06-04T05:36:24.520Z,996
2018-06-04T05:37:34.351Z,995.96
2018-06-04T05:38:44.442Z,996.01
2018-06-04T05:39:54.542Z,996.04
2018-06-04T05:41:04.678Z,995.95
2018-06-04T05:42:15.293Z,995.91
2018-06-04T05:43:24.983Z,995.96
2018-06-04T05:44:34.835Z,995.96
2018-06-04T05:45:44.915Z,995.98
2018-06-04T05:46:55.003Z,995.91
2018-06-04T05:48:05.099Z,995.89
2018-06-04T05:49:15.242Z,995.83
2018-06-04T05:50:25.338Z,995.86
2018-06-04T05:51:34.892Z,995.9
2018-06-04T05:52:44.717Z,995.88
2018-06-04T05:53:54.538Z,995.82
2018-06-04T05:55:04.363Z,995.88
2018-06-04T05:56:14.561Z,995.95
2018-06-04T05:57:24.940Z,995.87
2018-06-04T05:58:34.751Z,995.73
2018-06-04T05:59:44.577Z,995.72
2018-06-04T06:00:54.418Z,995.74
2018-06-04T06:02:04.509Z,995.75
2018-06-04T06:03:14.609Z,995.71
2018-06-04T06:04:24.709Z,995.7
2018-06-04T06:05:34.778Z,995.69
2018-06-04T06:06:44.869Z,995.69
2018-06-04T06:07:54.943Z,995.66
2018-06-04T06:09:05.083Z,995.64
2018-06-04T06:10:15.408Z,995.62
2018-06-04T06:11:25.220Z,995.59
2018-06-04T06:12:35.313Z,995.6
2018-06-04T06:13:45.397Z,995.58
2018-06-04T06:14:55.484Z,995.59
2018-06-04T06:16:05.574Z,995.55
2018-06-04T06:17:15.665Z,995.52
2018-06-04T06:18:25.493Z,995.53
2018-06-04T06:19:35.300Z,995.51
2018-06-04T06:20:45.141Z,995.51
2018-06-04T06:21:55.266Z,995.51
2018-06-04T06:23:05.041Z,995.53
2018-06-04T06:24:15.181Z,995.51
2018-06-04T06:25:25.310Z,995.52
2018-06-04T06:26:35.540Z,995.54
2018-06-04T06:27:45.432Z,995.52
2018-06-04T06:28:55.509Z,995.48
2018-06-04T06:30:05.671Z,995.48
2018-06-04T06:31:15.767Z,995.45
2018-06-04T06:32:25.843Z,995.48
2018-06-04T06:33:35.697Z,995.49
2018-06-04T06:34:45.525Z,995.46
2018-06-04T06:35:55.596Z,995.41
2018-06-04T06:37:05.698Z,995.42
2018-06-04T06:38:15.787Z,995.39
2018-06-04T06:39:25.883Z,995.37
2018-06-04T06:40:35.712Z,995.34
2018-06-04T06:41:45.804Z,995.33
2018-06-04T06:42:55.665Z,995.32
2018-06-04T06:44:05.213Z,995.3
2018-06-04T06:45:15.037Z,995.29
2018-06-04T06:46:25.136Z,995.3
2018-06-04T06:47:34.961Z,995.29
2018-06-04T06:48:45.065Z,995.26
2018-06-04T06:49:55.129Z,995.22
2018-06-04T06:51:05.226Z,995.22
2018-06-04T06:52:15.310Z,995.21
2018-06-04T06:53:25.404Z,995.21
2018-06-04T06:54:35.237Z,995.2
2018-06-04T06:55:45.329Z,995.17
2018-06-04T06:56:55.167Z,995.18
2018-06-04T06:58:05.245Z,995.16
2018-06-04T06:59:15.331Z,995.16
2018-06-04T07:00:25.442Z,995.13
2018-06-04T07:01:35.543Z,995.12
2018-06-04T07:02:45.373Z,995.12
2018-06-04T07:03:54.943Z,995.13
2018-06-04T07:05:05.058Z,995.12
2018-06-04T07:06:15.136Z,995.1
2018-06-04T07:07:25.256Z,995.11
2018-06-04T07:08:35.502Z,995.07
2018-06-04T07:09:45.592Z,995.04
2018-06-04T07:10:55.403Z,995.02
2018-06-04T07:12:05.541Z,995.02
2018-06-04T07:13:15.378Z,995.01
2018-06-04T07:14:24.977Z,995.03
2018-06-04T07:15:35.300Z,995
2018-06-04T07:16:45.388Z,994.98
2018-06-04T07:17:55.501Z,994.99
2018-06-04T07:19:05.336Z,994.94
2018-06-04T07:20:15.430Z,994.99
2018-06-04T07:21:25.067Z,994.97
2018-06-04T07:22:35.053Z,994.95
2018-06-04T07:23:45.154Z,994.95
2018-06-04T07:24:55.240Z,994.96
2018-06-04T07:26:05.045Z,994.96
2018-06-04T07:27:15.125Z,994.97
2018-06-04T07:28:25.261Z,995
2018-06-04T07:29:35.079Z,994.95
2018-06-04T07:30:45.156Z,994.97
2018-06-04T07:31:55.235Z,994.96
2018-06-04T07:33:05.323Z,995
2018-06-04T07:34:15.430Z,995
2018-06-04T07:35:25.523Z,995.01
2018-06-04T07:36:35.345Z,995.03
2018-06-04T07:37:45.443Z,995.02
2018-06-04T07:38:55.546Z,995.03
2018-06-04T07:40:05.642Z,995.02
2018-06-04T07:41:15.491Z,995
2018-06-04T07:42:25.857Z,995
2018-06-04T07:43:35.938Z,995.02
2018-06-04T07:44:45.755Z,994.98
2018-06-04T07:45:55.910Z,995
2018-06-04T07:47:05.987Z,995
2018-06-04T07:48:15.815Z,995
2018-06-04T07:49:25.693Z,994.97
2018-06-04T07:50:35.776Z,994.99
2018-06-04T07:51:45.913Z,995
2018-06-04T07:52:56.060Z,994.97
2018-06-04T07:54:05.886Z,994.97
2018-06-04T07:55:15.967Z,994.94
2018-06-04T07:56:26.082Z,994.96
2018-06-04T07:57:36.216Z,994.96
2018-06-04T07:58:46.305Z,994.95
2018-06-04T07:59:56.118Z,994.95
2018-06-04T08:01:06.215Z,994.94
2018-06-04T08:02:16.294Z,994.96
2018-06-04T08:03:26.385Z,994.96
2018-06-04T08:04:36.472Z,994.94
2018-06-04T08:05:46.306Z,994.95
2018-06-04T08:06:56.397Z,994.94
2018-06-04T08:08:06.496Z,994.94
2018-06-04T08:09:16.578Z,994.91
2018-06-04T08:10:26.664Z,994.9
2018-06-04T08:11:36.749Z,994.86
2018-06-04T08:12:46.875Z,994.89
2018-06-04T08:13:56.953Z,994.9
2018-06-04T08:15:07.054Z,994.9
2018-06-04T08:16:17.143Z,994.86
2018-06-04T08:17:27.235Z,994.85
2018-06-04T08:18:37.314Z,994.82
2018-06-04T08:19:47.137Z,994.87
2018-06-04T08:20:57.231Z,994.85
2018-06-04T08:22:07.328Z,994.82
2018-06-04T08:23:16.898Z,994.79
2018-06-04T08:24:26.992Z,994.82
2018-06-04T08:25:37.077Z,994.83
2018-06-04T08:26:47.180Z,994.78
2018-06-04T08:27:57.297Z,994.76
2018-06-04T08:29:07.124Z,994.77
2018-06-04T08:30:17.041Z,994.76
2018-06-04T08:31:26.615Z,994.73
2018-06-04T08:32:36.734Z,994.77
2018-06-04T08:33:46.814Z,994.74
2018-06-04T08:34:56.659Z,994.72
2018-06-04T08:36:06.851Z,994.69
2018-06-04T08:37:16.935Z,994.67
2018-06-04T08:38:27.081Z,994.67
2018-06-04T08:39:37.333Z,994.64
2018-06-04T08:40:47.407Z,994.6
2018-06-04T08:41:57.518Z,994.65
2018-06-04T08:43:07.340Z,994.64
2018-06-04T08:44:17.163Z,994.69
2018-06-04T08:45:27.253Z,994.68
2018-06-04T08:46:37.462Z,994.69
2018-06-04T08:47:47.586Z,994.66
2018-06-04T08:48:57.676Z,994.68
2018-06-04T08:50:07.764Z,994.65
2018-06-04T08:51:17.329Z,994.62
2018-06-04T08:52:27.464Z,994.6
2018-06-04T08:53:37.286Z,994.59
2018-06-04T08:54:47.395Z,994.58
2018-06-04T08:55:57.215Z,994.51
2018-06-04T08:57:07.049Z,994.55
2018-06-04T08:58:17.146Z,994.53
2018-06-04T08:59:27.250Z,994.54
2018-06-04T09:00:37.098Z,994.53
2018-06-04T09:01:47.196Z,994.5
2018-06-04T09:02:57.051Z,994.55
2018-06-04T09:04:07.150Z,994.48
2018-06-04T09:05:17.257Z,994.46
2018-06-04T09:06:27.069Z,994.49
2018-06-04T09:07:37.164Z,994.43
2018-06-04T09:08:46.992Z,994.41
2018-06-04T09:09:57.160Z,994.43
2018-06-04T09:11:07.257Z,994.39
2018-06-04T09:12:17.088Z,994.41
2018-06-04T09:13:26.906Z,994.41
2018-06-04T09:14:36.994Z,994.37
2018-06-04T09:15:47.155Z,994.32
2018-06-04T09:16:57.427Z,994.36
2018-06-04T09:18:07.267Z,994.38
2018-06-04T09:19:17.343Z,994.32
2018-06-04T09:20:27.466Z,994.3
2018-06-04T09:21:37.588Z,994.33
2018-06-04T09:22:47.898Z,994.28
2018-06-04T09:23:57.983Z,994.26
2018-06-04T09:25:07.795Z,994.23
2018-06-04T09:26:17.879Z,994.24
2018-06-04T09:27:27.965Z,994.31
2018-06-04T09:28:38.042Z,994.27
2018-06-04T09:29:47.872Z,994.27
2018-06-04T09:30:57.941Z,994.24
2018-06-04T09:32:08.032Z,994.23
2018-06-04T09:33:18.239Z,994.22
2018-06-04T09:34:28.122Z,994.25
2018-06-04T09:35:37.699Z,994.19
2018-06-04T09:36:47.777Z,994.23
2018-06-04T09:37:57.607Z,994.22
2018-06-04T09:39:07.437Z,994.2
2018-06-04T09:40:17.582Z,994.1
2018-06-04T09:41:27.402Z,994.12
2018-06-04T09:42:37.543Z,994.16
2018-06-04T09:43:47.649Z,994.15
2018-06-04T09:44:57.528Z,994.15
2018-06-04T09:46:07.661Z,994.14
2018-06-04T09:47:17.486Z,994.16
2018-06-04T09:48:27.716Z,994.12
2018-06-04T09:49:37.811Z,994.12
2018-06-04T09:50:47.921Z,994.08
2018-06-04T09:51:58.064Z,994.07
2018-06-04T09:53:07.901Z,994.06
2018-06-04T09:54:17.994Z,994.01
2018-06-04T09:55:28.123Z,994.01
2018-06-04T09:56:37.952Z,993.97
2018-06-04T09:57:47.784Z,994.01
2018-06-04T09:58:57.630Z,994.06
2018-06-04T10:00:07.756Z,994.01
2018-06-04T10:01:17.606Z,994.05
2018-06-04T10:02:27.724Z,994.06
2018-06-04T10:03:37.806Z,994.14
2018-06-04T10:04:47.735Z,994.15
2018-06-04T10:05:57.902Z,994.14
2018-06-04T10:07:07.997Z,994.1
2018-06-04T10:08:19.236Z,994.08
2018-06-04T10:09:34.574Z,994.02
2018-06-04T10:10:47.346Z,994.02
2018-06-04T10:12:10.011Z,994.03
2018-06-04T10:13:32.192Z,994.04
2018-06-04T10:14:53.799Z,993.99
2018-06-04T10:16:13.953Z,993.97
2018-06-04T10:17:33.882Z,993.92
2018-06-04T10:18:52.507Z,993.9
2018-06-04T10:20:12.589Z,993.96
2018-06-04T10:21:31.344Z,993.87
2018-06-04T10:22:49.550Z,993.89
2018-06-04T10:24:06.621Z,993.88
2018-06-04T10:25:23.652Z,993.93
2018-06-04T10:26:39.238Z,993.91
2018-06-04T10:27:56.352Z,993.86
2018-06-04T10:29:12.704Z,993.82
2018-06-04T10:30:23.837Z,993.8
2018-06-04T10:31:34.351Z,993.83
2018-06-04T10:32:44.482Z,993.82
2018-06-04T10:33:54.333Z,993.8
2018-06-04T10:35:04.909Z,993.77
2018-06-04T10:36:15.005Z,993.85
2018-06-04T10:37:25.083Z,993.77
2018-06-04T10:38:35.186Z,993.77
2018-06-04T10:39:45.046Z,993.75
2018-06-04T10:40:54.897Z,993.66
2018-06-04T10:42:05.014Z,993.66
2018-06-04T10:43:15.104Z,993.6
2018-06-04T10:44:25.488Z,993.52
2018-06-04T10:45:42.189Z,993.46
2018-06-04T10:47:00.423Z,993.48
2018-06-04T10:48:13.406Z,993.45
2018-06-04T10:49:27.352Z,993.43
2018-06-04T10:50:41.758Z,993.42
2018-06-04T10:51:54.685Z,993.43
2018-06-04T10:53:08.436Z,993.38
2018-06-04T10:54:20.751Z,993.38
2018-06-04T10:55:33.861Z,993.34
2018-06-04T10:56:47.894Z,993.35
2018-06-04T10:58:00.442Z,993.23
2018-06-04T10:59:13.878Z,993.33
2018-06-04T11:00:23.967Z,993.29
2018-06-04T11:01:33.843Z,993.25
2018-06-04T11:02:43.928Z,993.25
2018-06-04T11:03:54.005Z,993.24
2018-06-04T11:05:04.131Z,993.22
2018-06-04T11:06:14.233Z,993.17
2018-06-04T11:07:24.349Z,993.14
2018-06-04T11:08:34.441Z,993.2
2018-06-04T11:09:44.537Z,993.17
2018-06-04T11:10:54.352Z,993.17
2018-06-04T11:12:04.444Z,993.09
2018-06-04T11:13:14.347Z,993.13
2018-06-04T11:14:24.497Z,993.09
2018-06-04T11:15:34.801Z,993.02
2018-06-04T11:16:44.924Z,993.04
2018-06-04T11:17:54.766Z,993.02
2018-06-04T11:20:29.635Z,992.96
2018-06-04T11:21:39.752Z,992.96
2018-06-04T11:22:49.870Z,992.96
2018-06-04T11:23:59.450Z,992.91
2018-06-04T11:25:09.547Z,992.84
2018-06-04T11:26:19.626Z,992.82
2018-06-04T11:27:29.755Z,992.75
2018-06-04T11:28:39.865Z,992.75
2018-06-04T11:29:49.950Z,992.76
2018-06-04T11:31:00.089Z,992.71
2018-06-04T11:32:10.208Z,992.71
2018-06-04T11:33:20.040Z,992.69
2018-06-04T11:34:29.894Z,992.67
2018-06-04T11:35:40.008Z,992.65
2018-06-04T11:36:50.128Z,992.61
2018-06-04T11:38:00.232Z,992.64
2018-06-04T11:39:10.314Z,992.66
2018-06-04T11:40:20.432Z,992.62
2018-06-04T11:41:30.542Z,992.57
2018-06-04T11:42:40.643Z,992.59
2018-06-04T11:43:50.760Z,992.55
2018-06-04T11:45:01.165Z,992.56
2018-06-04T11:46:11.252Z,992.56
2018-06-04T11:47:21.350Z,992.52
2018-06-04T11:48:31.527Z,992.55
2018-06-04T11:49:41.626Z,992.49
2018-06-04T11:50:51.728Z,992.49
2018-06-04T11:52:01.826Z,992.54
2018-06-04T11:53:11.929Z,992.51
2018-06-04T11:54:21.780Z,992.43
2018-06-04T11:55:31.652Z,992.44
2018-06-04T11:56:41.868Z,992.38
2018-06-04T11:57:52.326Z,992.36
2018-06-04T11:59:02.406Z,992.36
2018-06-04T12:00:12.492Z,992.32
2018-06-04T12:01:22.585Z,992.31
2018-06-04T12:02:32.683Z,992.3
2018-06-04T12:03:42.509Z,992.31
2018-06-04T12:04:52.595Z,992.32
2018-06-04T12:06:02.430Z,992.34
2018-06-04T12:07:12.537Z,992.31
2018-06-04T12:08:22.602Z,992.28
2018-06-04T12:09:32.938Z,992.27
2018-06-04T12:10:42.746Z,992.28
2018-06-04T12:11:52.601Z,992.24
2018-06-04T12:13:02.714Z,992.22
2018-06-04T12:14:12.811Z,992.24
2018-06-04T12:15:22.894Z,992.23
2018-06-04T12:16:32.723Z,992.21
2018-06-04T12:17:42.872Z,992.16
2018-06-04T12:18:52.954Z,992.18
2018-06-04T12:20:02.925Z,992.12
2018-06-04T12:21:14.973Z,992.1
2018-06-04T12:22:25.341Z,992.1
2018-06-04T12:23:35.982Z,992.14
2018-06-04T12:24:46.153Z,992.18
2018-06-04T12:25:56.487Z,992.2
2018-06-04T12:27:06.075Z,992.13
2018-06-04T12:28:16.358Z,992.12
2018-06-04T12:29:26.308Z,992.06
2018-06-04T12:30:36.414Z,992.08
2018-06-04T12:31:46.523Z,992.03
2018-06-04T12:32:56.594Z,992.12
2018-06-04T12:34:06.690Z,992.04
2018-06-04T12:35:16.796Z,992.05
2018-06-04T12:36:26.878Z,992.04
2018-06-04T12:37:36.983Z,992.09
2018-06-04T12:38:47.112Z,992.07
2018-06-04T12:39:57.446Z,992.05
2018-06-04T12:41:07.791Z,991.98
2018-06-04T12:42:17.646Z,992.03
2018-06-04T12:43:27.507Z,991.95
2018-06-04T12:44:37.366Z,991.99
2018-06-04T12:45:47.461Z,991.94
2018-06-04T12:46:57.586Z,991.97
2018-06-04T12:48:07.720Z,992
2018-06-04T12:49:17.933Z,991.98
2018-06-04T12:50:27.771Z,992.01
2018-06-04T12:51:37.890Z,992
2018-06-04T12:52:47.718Z,991.98
2018-06-04T12:53:57.799Z,991.97
2018-06-04T12:55:07.900Z,992.04
2018-06-04T12:56:17.987Z,992.03
2018-06-04T12:57:28.075Z,992.05
2018-06-04T12:58:38.186Z,992
2018-06-04T12:59:48.280Z,991.99
2018-06-04T13:00:58.377Z,991.94
2018-06-04T13:02:08.197Z,991.97
2018-06-04T13:03:18.302Z,991.93
2018-06-04T13:04:28.426Z,991.89
2018-06-04T13:05:38.886Z,991.87
2018-06-04T13:06:48.974Z,991.9
2018-06-04T13:07:59.074Z,991.89
2018-06-04T13:09:08.928Z,991.87
2018-06-04T13:10:19.094Z,991.85
2018-06-04T13:11:29.397Z,991.8
2018-06-04T13:12:39.258Z,991.84
2018-06-04T13:13:49.374Z,991.8
2018-06-04T13:14:59.448Z,991.84
2018-06-04T13:16:09.572Z,991.82
2018-06-04T13:17:19.685Z,991.82
2018-06-04T13:18:29.516Z,991.78
2018-06-04T13:19:39.599Z,991.72
2018-06-04T13:20:49.692Z,991.68
2018-06-04T13:21:59.850Z,991.64
2018-06-04T13:23:09.953Z,991.59
2018-06-04T13:24:20.047Z,991.56
2018-06-04T13:25:29.890Z,991.55
2018-06-04T13:26:39.973Z,991.54
2018-06-04T13:27:49.793Z,991.56
2018-06-04T13:28:59.889Z,991.52
2018-06-04T13:30:09.724Z,991.54
2018-06-04T13:31:19.799Z,991.53
2018-06-04T13:32:29.894Z,991.56
2018-06-04T13:33:40.026Z,991.48
2018-06-04T13:34:50.198Z,991.47
2018-06-04T13:36:00.283Z,991.5
2018-06-04T13:37:10.365Z,991.5
2018-06-04T13:38:20.485Z,991.44
2018-06-04T13:39:30.581Z,991.42
2018-06-04T13:40:40.986Z,991.44
2018-06-04T13:41:50.796Z,991.48
2018-06-04T13:43:00.926Z,991.46
2018-06-04T13:44:11.024Z,991.44
2018-06-04T13:45:20.863Z,991.43
2018-06-04T13:46:30.427Z,991.4
2018-06-04T13:47:40.740Z,991.38
2018-06-04T13:48:50.846Z,991.31
2018-06-04T13:50:00.930Z,991.31
2018-06-04T13:51:11.023Z,991.31
2018-06-04T13:52:21.116Z,991.34
2018-06-04T13:53:30.948Z,991.35
2018-06-04T13:54:41.025Z,991.34
2018-06-04T13:55:50.853Z,991.33
2018-06-04T13:57:00.939Z,991.33
2018-06-04T13:58:11.045Z,991.3
2018-06-04T13:59:21.153Z,991.27
2018-06-04T14:00:30.988Z,991.26
2018-06-04T14:01:41.100Z,991.22
2018-06-04T14:02:50.990Z,991.21
2018-06-04T14:04:00.561Z,991.22
2018-06-04T14:05:10.640Z,991.19
2018-06-04T14:06:20.725Z,991.18
2018-06-04T14:07:30.847Z,991.19
2018-06-04T14:08:40.978Z,991.16
2018-06-04T14:09:51.151Z,991.17
2018-06-04T14:11:01.023Z,991.14
2018-06-04T14:12:11.146Z,991.14
2018-06-04T14:13:20.985Z,991.11
2018-06-04T14:14:30.605Z,991.1
2018-06-04T14:15:40.743Z,991.05
2018-06-04T14:16:50.835Z,991.08
2018-06-04T14:18:00.909Z,991.14
2018-06-04T14:19:10.731Z,991.11
2018-06-04T14:20:20.839Z,991.11
2018-06-04T14:21:30.663Z,991.09
2018-06-04T14:22:40.755Z,991.02
2018-06-04T14:23:50.850Z,991.01
2018-06-04T14:25:00.706Z,990.94
2018-06-04T14:26:10.565Z,990.89
2018-06-04T14:27:20.671Z,990.86
2018-06-04T14:28:30.911Z,990.97
2018-06-04T14:29:41.019Z,990.94
2018-06-04T14:30:50.858Z,990.92
2018-06-04T14:32:00.749Z,990.98
2018-06-04T14:33:10.827Z,990.94
2018-06-04T14:34:20.967Z,990.93
2018-06-04T14:35:31.067Z,990.93
2018-06-04T14:36:40.900Z,990.9
2018-06-04T14:37:51.019Z,990.87
2018-06-04T14:39:00.854Z,990.84
2018-06-04T14:40:10.939Z,990.81
2018-06-04T14:41:21.064Z,990.81
2018-06-04T14:42:31.168Z,990.78
2018-06-04T14:43:41.262Z,990.76
2018-06-04T14:44:51.345Z,990.73
2018-06-04T14:46:01.425Z,990.73
2018-06-04T14:47:11.522Z,990.71
2018-06-04T14:48:21.625Z,990.72
2018-06-04T14:49:31.829Z,990.74
2018-06-04T14:50:42.138Z,990.74
2018-06-04T14:51:52.211Z,990.72
2018-06-04T14:53:02.337Z,990.8
2018-06-04T14:54:12.436Z,990.75
2018-06-04T14:55:22.560Z,990.71
2018-06-04T14:56:32.432Z,990.72
2018-06-04T14:57:42.743Z,990.73
2018-06-04T14:58:52.589Z,990.72
2018-06-04T15:00:02.430Z,990.7
2018-06-04T15:01:12.595Z,990.72
2018-06-04T15:02:22.415Z,990.7
2018-06-04T15:03:32.264Z,990.69
2018-06-04T15:04:42.344Z,990.72
2018-06-04T15:05:52.454Z,990.71
2018-06-04T15:07:02.537Z,990.69
2018-06-04T15:08:12.373Z,990.66
2018-06-04T15:09:22.504Z,990.66
2018-06-04T15:10:32.598Z,990.63
2018-06-04T15:11:42.439Z,990.64
2018-06-04T15:12:52.284Z,990.62